Time;durP1;ratioP1;P1;durP2;ratioP2;P2;SDS_P1;SDS_P2;PMS_P1;PMS_P2;Temp;Humidity;BMP_temperature;BMP_pressure;BME280_temperature;BME280_humidity;BME280_pressure;Samples;Min_cycle;Max_cycle;Signal;HPM_P1;HPM_P2
2021/03/21 00:00:57;;;;;;;3.50;2.58;;;3.70;99.90;;;;;;5030192;28;20189;-75
2021/03/21 00:03:24;;;;;;;3.50;2.88;;;3.70;99.90;;;;;;5034140;28;20212;-75
2021/03/21 00:05:51;;;;;;;7.53;5.30;;;3.70;99.90;;;;;;5033602;28;20169;-75
2021/03/21 00:08:20;;;;;;;4.05;2.35;;;3.70;99.90;;;;;;5034266;28;20216;-75
2021/03/21 00:10:49;;;;;;;4.68;2.70;;;3.70;99.90;;;;;;5034384;28;20178;-75
2021/03/21 00:13:18;;;;;;;2.75;2.10;;;3.80;99.90;;;;;;5034474;28;20185;-75
2021/03/21 00:15:47;;;;;;;3.70;2.63;;;3.70;99.90;;;;;;5034081;28;20284;-75
2021/03/21 00:18:15;;;;;;;4.57;2.95;;;3.70;99.90;;;;;;5033911;28;20253;-75
2021/03/21 00:20:42;;;;;;;8.30;4.13;;;3.70;99.90;;;;;;5032362;28;20196;-76
2021/03/21 00:23:10;;;;;;;6.53;3.65;;;3.70;99.90;;;;;;5033582;28;20197;-75
2021/03/21 00:25:37;;;;;;;5.15;3.22;;;3.70;99.90;;;;;;5033120;28;20221;-76
2021/03/21 00:28:06;;;;;;;4.28;3.05;;;3.70;99.90;;;;;;5033649;28;20194;-76
2021/03/21 00:30:36;;;;;;;6.25;3.55;;;3.80;99.90;;;;;;5033422;28;20230;-74
2021/03/21 00:33:05;;;;;;;4.88;3.15;;;3.80;99.90;;;;;;5033313;28;20182;-75
2021/03/21 00:35:32;;;;;;;5.22;3.38;;;3.80;99.90;;;;;;5033849;28;20251;-76
2021/03/21 00:38:02;;;;;;;4.53;3.92;;;3.80;99.90;;;;;;5033473;28;20198;-75
2021/03/21 00:40:31;;;;;;;4.35;3.22;;;3.80;99.90;;;;;;5033810;28;20588;-75
2021/03/21 00:42:58;;;;;;;3.85;3.50;;;3.80;99.90;;;;;;5033655;28;20186;-74
2021/03/21 00:45:27;;;;;;;5.20;3.88;;;3.80;99.90;;;;;;5033576;28;20212;-75
2021/03/21 00:47:55;;;;;;;4.10;3.10;;;3.80;99.90;;;;;;5034141;28;20177;-75
2021/03/21 00:50:26;;;;;;;7.03;4.60;;;3.80;99.90;;;;;;5032320;28;20251;-74
2021/03/21 00:52:53;;;;;;;4.20;3.70;;;3.80;99.90;;;;;;5033855;28;20621;-76
2021/03/21 00:55:21;;;;;;;6.82;4.28;;;3.80;99.90;;;;;;5036978;28;20243;-76
2021/03/21 00:57:48;;;;;;;7.72;3.45;;;3.70;99.90;;;;;;5036207;28;20255;-75
2021/03/21 01:00:20;;;;;;;3.33;2.95;;;3.60;99.90;;;;;;5037210;28;20566;-76
2021/03/21 01:02:47;;;;;;;12.32;4.28;;;3.60;99.90;;;;;;5037738;28;20393;-76
2021/03/21 01:05:19;;;;;;;4.18;3.35;;;3.50;99.90;;;;;;5034898;28;20225;-75
2021/03/21 01:07:49;;;;;;;6.88;4.60;;;3.50;99.90;;;;;;5032834;28;20209;-75
2021/03/21 01:10:17;;;;;;;4.85;2.67;;;3.50;99.90;;;;;;5033226;28;20197;-74
2021/03/21 01:12:49;;;;;;;6.32;4.20;;;3.50;99.90;;;;;;5033633;28;20182;-76
2021/03/21 01:15:17;;;;;;;5.20;4.10;;;3.50;99.90;;;;;;5033408;28;20213;-74
2021/03/21 01:17:44;;;;;;;7.53;4.20;;;3.50;99.90;;;;;;5034415;28;20197;-76
2021/03/21 01:20:12;;;;;;;10.30;5.03;;;3.50;99.90;;;;;;5033482;28;20182;-75
2021/03/21 01:22:40;;;;;;;6.60;4.85;;;3.50;99.90;;;;;;5033594;28;20360;-75
2021/03/21 01:25:09;;;;;;;6.18;4.70;;;3.40;99.90;;;;;;5033530;28;20737;-75
2021/03/21 01:27:51;;;;;;;5.78;5.18;;;3.40;99.90;;;;;;5033341;28;20174;-76
2021/03/21 01:30:19;;;;;;;8.02;5.32;;;3.40;99.90;;;;;;5032301;28;20212;-75
2021/03/21 01:32:47;;;;;;;12.23;5.20;;;3.40;99.90;;;;;;5032660;28;20173;-76
2021/03/21 01:35:15;;;;;;;10.02;6.60;;;3.40;99.90;;;;;;5014572;28;20304;-75
2021/03/21 01:37:42;;;;;;;10.20;5.50;;;3.30;99.90;;;;;;5032262;28;20791;-74
2021/03/21 01:40:13;;;;;;;8.70;5.00;;;3.30;99.90;;;;;;5032717;28;20695;-75
2021/03/21 01:42:42;;;;;;;8.88;5.35;;;3.30;99.90;;;;;;5033067;28;20544;-75
2021/03/21 01:45:34;;;;;;;11.73;4.90;;;3.30;99.90;;;;;;5033079;28;20209;-75
2021/03/21 01:48:04;;;;;;;6.07;5.35;;;3.20;99.90;;;;;;5033158;28;20265;-75
2021/03/21 01:50:36;;;;;;;10.35;7.43;;;3.20;99.90;;;;;;5034154;28;20182;-75
2021/03/21 01:53:04;;;;;;;7.18;6.47;;;3.20;99.90;;;;;;5034351;28;20655;-76
2021/03/21 01:55:32;;;;;;;8.57;5.78;;;3.20;99.90;;;;;;5034143;28;20217;-74
2021/03/21 01:58:14;;;;;;;7.45;6.00;;;3.20;99.90;;;;;;5032469;28;20236;-75
2021/03/21 02:00:41;;;;;;;14.73;5.75;;;3.20;99.90;;;;;;5032280;28;20216;-75
2021/03/21 02:03:08;;;;;;;6.30;5.63;;;3.20;99.90;;;;;;5032067;28;20170;-76
2021/03/21 02:05:38;;;;;;;8.93;6.10;;;3.20;99.90;;;;;;5031843;28;20217;-75
2021/03/21 02:08:25;;;;;;;10.70;7.05;;;3.20;99.90;;;;;;5032117;28;20231;-75
2021/03/21 02:11:00;;;;;;;13.95;6.25;;;3.20;99.90;;;;;;5031912;28;20170;-75
2021/03/21 02:13:37;;;;;;;11.48;6.53;;;3.30;99.90;;;;;;5032000;28;20173;-75
2021/03/21 02:16:09;;;;;;;8.20;5.07;;;3.20;99.90;;;;;;5031980;28;20181;-75
2021/03/21 02:18:45;;;;;;;8.43;5.38;;;3.20;99.90;;;;;;5032012;28;20170;-75
2021/03/21 02:21:23;;;;;;;7.63;6.60;;;3.20;99.90;;;;;;5032171;28;20169;-74
2021/03/21 02:24:23;;;;;;;12.27;8.05;;;3.20;99.90;;;;;;5031305;28;20227;-74
2021/03/21 02:27:20;;;;;;;11.02;8.30;;;3.20;99.90;;;;;;5014329;28;20289;-75
2021/03/21 02:29:51;;;;;;;9.23;6.72;;;3.10;99.90;;;;;;5019606;28;20215;-74
2021/03/21 02:32:23;;;;;;;9.50;6.85;;;3.10;99.90;;;;;;5035666;28;20177;-74
2021/03/21 02:35:03;;;;;;;9.95;7.47;;;3.10;99.90;;;;;;5035929;28;20616;-74
2021/03/21 02:37:36;;;;;;;12.82;8.85;;;3.10;99.90;;;;;;5035501;28;20202;-75
2021/03/21 02:40:15;;;;;;;12.27;8.75;;;3.10;99.90;;;;;;5035166;28;20239;-75
2021/03/21 02:42:46;;;;;;;11.70;7.80;;;3.10;99.90;;;;;;5036132;28;20189;-74
2021/03/21 02:45:19;;;;;;;11.50;8.10;;;3.10;99.90;;;;;;5035765;28;20220;-74
2021/03/21 02:47:49;;;;;;;12.73;7.63;;;3.10;99.90;;;;;;5035831;28;20181;-74
2021/03/21 02:50:20;;;;;;;11.15;7.80;;;3.10;99.90;;;;;;5035888;28;20182;-76
2021/03/21 02:52:51;;;;;;;16.77;8.77;;;3.10;99.90;;;;;;5035030;28;20174;-76
2021/03/21 02:55:24;;;;;;;14.90;9.63;;;3.10;99.90;;;;;;5035262;28;20210;-75
2021/03/21 02:57:57;;;;;;;11.55;8.85;;;3.10;99.90;;;;;;5035026;28;20668;-75
2021/03/21 03:00:30;;;;;;;15.75;10.30;;;3.20;99.90;;;;;;5035054;28;20235;-75
2021/03/21 03:03:02;;;;;;;14.82;8.90;;;3.20;99.90;;;;;;5035399;28;20180;-75
2021/03/21 03:05:35;;;;;;;17.73;11.30;;;3.20;99.90;;;;;;5035196;28;20602;-75
2021/03/21 03:08:08;;;;;;;14.70;9.57;;;3.30;99.90;;;;;;5034028;28;20189;-75
2021/03/21 03:10:39;;;;;;;13.60;9.48;;;3.30;99.90;;;;;;5035268;28;20177;-74
2021/03/21 03:13:10;;;;;;;10.70;8.88;;;3.30;99.90;;;;;;5034975;28;20667;-75
2021/03/21 03:15:40;;;;;;;10.95;8.20;;;3.40;99.90;;;;;;5035139;28;20236;-74
2021/03/21 03:18:18;;;;;;;10.85;7.70;;;3.40;99.90;;;;;;5034633;28;20202;-75
2021/03/21 03:20:50;;;;;;;13.50;8.35;;;3.40;99.90;;;;;;5035096;28;20608;-73
2021/03/21 03:23:27;;;;;;;14.80;8.45;;;3.50;99.90;;;;;;5035037;28;20174;-74
2021/03/21 03:26:00;;;;;;;13.60;7.45;;;3.40;99.90;;;;;;5035067;28;20178;-75
2021/03/21 03:28:33;;;;;;;7.70;6.60;;;3.40;99.90;;;;;;5034913;28;20177;-74
2021/03/21 03:31:08;;;;;;;11.45;7.25;;;3.40;99.90;;;;;;5034521;28;20174;-75
2021/03/21 03:33:36;;;;;;;8.95;6.95;;;3.40;99.90;;;;;;5034300;28;20176;-74
2021/03/21 03:36:05;;;;;;;7.35;6.63;;;3.40;99.90;;;;;;5034932;28;20212;-74
2021/03/21 03:38:34;;;;;;;10.07;7.03;;;3.50;99.90;;;;;;5034451;28;20393;-75
2021/03/21 03:41:07;;;;;;;10.93;5.22;;;3.50;99.90;;;;;;5033912;28;20669;-76
2021/03/21 03:43:44;;;;;;;7.78;6.20;;;3.50;99.90;;;;;;5034224;28;20181;-75
2021/03/21 03:46:19;;;;;;;7.97;6.57;;;3.50;99.90;;;;;;5034287;28;20174;-75
2021/03/21 03:48:54;;;;;;;12.57;8.43;;;3.60;99.90;;;;;;5036507;28;20180;-75
2021/03/21 03:51:29;;;;;;;7.80;6.03;;;3.60;99.90;;;;;;5038775;28;20204;-74
2021/03/21 03:54:14;;;;;;;8.73;5.78;;;3.60;99.90;;;;;;5038875;28;20280;-75
2021/03/21 03:56:48;;;;;;;6.82;5.65;;;3.60;99.90;;;;;;5039082;28;20269;-74
2021/03/21 03:59:31;;;;;;;9.68;6.07;;;3.60;99.90;;;;;;5037718;28;20551;-75
2021/03/21 04:02:05;;;;;;;8.38;5.38;;;3.60;99.90;;;;;;5018305;28;20280;-75
2021/03/21 04:04:42;;;;;;;10.98;5.68;;;3.60;99.90;;;;;;5034665;28;20209;-76
2021/03/21 04:07:16;;;;;;;9.05;5.90;;;3.70;99.90;;;;;;5034561;28;20192;-76
2021/03/21 04:09:52;;;;;;;5.53;4.35;;;3.70;99.90;;;;;;5036072;28;20227;-76
2021/03/21 04:12:26;;;;;;;7.18;4.80;;;3.70;99.90;;;;;;5037108;28;20185;-76
2021/03/21 04:15:00;;;;;;;5.85;5.00;;;3.80;99.90;;;;;;5037103;28;20294;-76
2021/03/21 04:17:36;;;;;;;6.13;5.53;;;3.80;99.90;;;;;;5036712;28;20197;-76
2021/03/21 04:20:10;;;;;;;6.80;4.53;;;3.80;99.90;;;;;;5036198;28;20174;-76
2021/03/21 04:22:42;;;;;;;9.60;5.90;;;3.80;99.90;;;;;;5036403;28;20256;-76
2021/03/21 04:25:15;;;;;;;6.90;5.10;;;3.80;99.90;;;;;;5036124;28;20205;-75
2021/03/21 04:27:46;;;;;;;8.73;5.32;;;3.90;99.90;;;;;;5034869;28;20174;-77
2021/03/21 04:30:17;;;;;;;7.22;4.20;;;3.90;99.90;;;;;;5033397;28;20189;-76
2021/03/21 04:32:48;;;;;;;4.03;3.63;;;3.90;99.90;;;;;;5033732;28;20185;-77
2021/03/21 04:35:21;;;;;;;7.07;3.40;;;3.90;99.90;;;;;;5033781;28;20674;-77
2021/03/21 04:37:57;;;;;;;4.38;3.20;;;3.90;99.90;;;;;;5033851;28;20198;-75
2021/03/21 04:40:24;;;;;;;6.25;3.53;;;3.90;99.90;;;;;;5033752;28;20589;-76
2021/03/21 04:42:55;;;;;;;7.28;3.47;;;3.90;99.90;;;;;;5033524;28;20181;-77
2021/03/21 04:45:26;;;;;;;5.50;3.80;;;4.00;99.90;;;;;;5033785;28;20691;-74
2021/03/21 04:47:59;;;;;;;3.75;3.00;;;3.90;99.90;;;;;;5033678;28;20664;-75
2021/03/21 04:50:27;;;;;;;8.77;4.53;;;4.00;99.90;;;;;;5033544;28;20189;-75
2021/03/21 04:52:59;;;;;;;5.18;3.70;;;4.00;99.90;;;;;;5034205;28;20174;-77
2021/03/21 04:55:31;;;;;;;5.88;4.05;;;4.00;99.90;;;;;;5033398;28;20216;-76
2021/03/21 04:58:03;;;;;;;5.35;3.70;;;4.00;99.90;;;;;;5033408;28;20232;-77
2021/03/21 05:00:39;;;;;;;6.47;3.72;;;4.00;99.90;;;;;;5034731;28;20490;-74
2021/03/21 05:03:16;;;;;;;5.88;2.72;;;4.00;99.90;;;;;;5034603;28;20559;-76
2021/03/21 05:05:47;;;;;;;2.95;2.45;;;4.10;99.90;;;;;;5035784;28;20689;-75
2021/03/21 05:08:18;;;;;;;6.07;3.33;;;4.10;99.90;;;;;;5034723;28;20174;-77
2021/03/21 05:10:48;;;;;;;3.42;2.72;;;4.10;99.90;;;;;;5016955;28;20411;-77
2021/03/21 05:13:20;;;;;;;3.85;2.70;;;4.10;99.90;;;;;;5035999;28;20617;-77
2021/03/21 05:15:52;;;;;;;2.88;2.08;;;4.10;99.90;;;;;;5034207;28;20188;-76
2021/03/21 05:18:28;;;;;;;4.63;2.78;;;4.20;99.90;;;;;;5034023;28;20201;-76
2021/03/21 05:21:03;;;;;;;2.22;1.60;;;4.10;99.90;;;;;;5033983;28;20205;-76
2021/03/21 05:23:43;;;;;;;2.95;2.75;;;4.20;99.90;;;;;;5034016;28;20554;-76
2021/03/21 05:26:16;;;;;;;3.95;2.58;;;4.20;99.90;;;;;;5034606;28;20201;-77
2021/03/21 05:28:53;;;;;;;4.00;2.63;;;4.20;99.90;;;;;;5034370;28;20260;-76
2021/03/21 05:31:21;;;;;;;2.90;2.03;;;4.30;99.90;;;;;;5040113;28;20547;-76
2021/03/21 05:33:49;;;;;;;2.95;2.35;;;4.30;99.90;;;;;;5040524;28;20707;-76
2021/03/21 05:36:27;;;;;;;2.53;2.22;;;4.30;99.90;;;;;;5036375;28;20239;-77
2021/03/21 05:38:56;;;;;;;6.07;2.40;;;4.40;99.90;;;;;;5033668;28;20565;-75
2021/03/21 05:41:52;;;;;;;2.28;2.08;;;4.40;99.90;;;;;;5033264;28;20181;-74
2021/03/21 05:44:56;;;;;;;3.08;2.15;;;4.40;99.90;;;;;;5033875;28;20205;-75
2021/03/21 05:47:55;;;;;;;3.75;2.17;;;4.40;99.90;;;;;;5016171;28;20188;-75
2021/03/21 05:51:02;;;;;;;3.88;2.20;;;4.40;99.90;;;;;;5029336;28;20197;-75
2021/03/21 05:54:01;;;;;;;3.15;2.38;;;4.40;99.90;;;;;;5034196;28;20209;-76
2021/03/21 05:56:59;;;;;;;3.60;2.03;;;4.40;99.90;;;;;;5032064;28;20557;-75
2021/03/21 05:59:42;;;;;;;4.00;2.55;;;4.40;99.90;;;;;;5019387;28;20269;-77
2021/03/21 06:02:29;;;;;;;5.50;1.48;;;4.40;99.90;;;;;;5013592;28;20178;-76
2021/03/21 06:05:24;;;;;;;4.00;2.15;;;4.50;99.90;;;;;;5016603;28;20224;-75
2021/03/21 06:08:10;;;;;;;3.00;1.98;;;4.40;99.90;;;;;;5017307;28;20537;-78
2021/03/21 06:11:22;;;;;;;2.85;1.75;;;4.50;99.90;;;;;;5017701;28;20201;-76
2021/03/21 06:14:11;;;;;;;2.83;2.03;;;4.50;99.90;;;;;;5017198;28;20217;-77
2021/03/21 06:17:06;;;;;;;1.80;1.25;;;4.60;99.90;;;;;;5013624;28;20216;-75
2021/03/21 06:19:54;;;;;;;3.15;2.85;;;4.60;99.90;;;;;;5003523;28;20456;-76
2021/03/21 06:22:34;;;;;;;2.28;1.55;;;4.70;99.90;;;;;;5016693;28;20175;-76
2021/03/21 06:25:37;;;;;;;2.78;1.45;;;4.70;99.90;;;;;;5016230;28;20241;-76
2021/03/21 06:28:31;;;;;;;4.40;2.80;;;4.80;99.90;;;;;;5012395;28;20622;-76
2021/03/21 06:31:44;;;;;;;3.05;2.10;;;4.80;99.90;;;;;;4978313;28;20217;-74
2021/03/21 06:34:20;;;;;;;3.20;1.98;;;4.80;99.90;;;;;;4998845;28;20233;-76
2021/03/21 06:36:52;;;;;;;2.90;2.03;;;4.90;99.90;;;;;;5018374;28;20185;-75
2021/03/21 06:39:41;;;;;;;2.58;1.90;;;5.00;99.90;;;;;;5017099;28;20184;-76
2021/03/21 06:42:37;;;;;;;2.30;1.98;;;5.00;99.90;;;;;;5021329;28;20198;-76
2021/03/21 06:45:47;;;;;;;4.15;2.97;;;5.00;99.90;;;;;;5024884;28;20557;-75
2021/03/21 06:48:28;;;;;;;3.10;1.52;;;5.00;99.90;;;;;;5040991;28;20679;-76
2021/03/21 06:51:11;;;;;;;13.10;2.00;;;5.00;99.90;;;;;;5043879;28;20192;-77
2021/03/21 06:53:48;;;;;;;2.50;2.30;;;5.00;99.90;;;;;;5036989;28;20188;-77
2021/03/21 06:56:49;;;;;;;2.63;2.40;;;5.10;99.90;;;;;;5036426;28;20189;-76
2021/03/21 06:59:56;;;;;;;2.45;1.77;;;5.20;99.90;;;;;;5036861;28;20217;-76
2021/03/21 07:03:10;;;;;;;2.60;1.60;;;5.30;99.90;;;;;;5020551;28;20255;-77
2021/03/21 07:06:19;;;;;;;2.83;1.55;;;5.40;99.90;;;;;;5023454;28;20600;-77
2021/03/21 07:09:08;;;;;;;3.10;2.17;;;5.40;99.90;;;;;;5039291;28;20188;-77
2021/03/21 07:12:27;;;;;;;2.60;1.75;;;5.40;99.90;;;;;;5036408;28;20634;-77
2021/03/21 07:15:24;;;;;;;3.95;2.55;;;5.50;99.90;;;;;;5011243;28;20249;-76
2021/03/21 07:18:17;;;;;;;2.20;1.52;;;5.50;99.90;;;;;;5034670;28;20210;-75
2021/03/21 07:21:04;;;;;;;2.97;2.20;;;5.50;99.90;;;;;;5036462;28;20213;-76
2021/03/21 07:24:01;;;;;;;2.10;1.67;;;5.60;99.90;;;;;;5036696;28;20177;-76
2021/03/21 07:27:24;;;;;;;2.15;1.27;;;5.50;99.90;;;;;;5020338;28;20193;-76
2021/03/21 07:29:54;;;;;;;2.60;1.50;;;5.50;99.90;;;;;;5038085;28;20204;-77
2021/03/21 07:32:56;;;;;;;6.90;1.75;;;5.50;99.90;;;;;;5019266;28;20186;-75
2021/03/21 07:35:39;;;;;;;4.50;1.65;;;5.50;99.90;;;;;;5036491;28;20225;-76
2021/03/21 07:38:21;;;;;;;2.10;1.70;;;5.50;99.90;;;;;;5036889;28;20687;-76
2021/03/21 07:40:51;;;;;;;2.25;1.75;;;5.50;99.90;;;;;;5037418;28;20182;-76
2021/03/21 07:43:43;;;;;;;3.15;2.28;;;5.70;99.90;;;;;;5037261;28;20181;-76
2021/03/21 07:46:43;;;;;;;2.08;1.15;;;5.80;99.90;;;;;;5037710;28;20181;-75
2021/03/21 07:49:37;;;;;;;5.88;1.95;;;5.90;99.90;;;;;;5038094;28;20196;-77
2021/03/21 07:52:36;;;;;;;1.80;0.95;;;6.00;99.90;;;;;;5036477;28;20177;-76
2021/03/21 07:55:10;;;;;;;2.00;1.02;;;6.10;99.90;;;;;;5036333;28;20268;-77
2021/03/21 07:57:51;;;;;;;2.45;1.73;;;6.20;99.90;;;;;;5035349;28;20201;-76
2021/03/21 08:00:20;;;;;;;4.40;1.00;;;6.40;99.90;;;;;;5034864;28;20211;-76
2021/03/21 08:02:56;;;;;;;1.40;1.10;;;6.40;99.90;;;;;;5035466;28;20629;-78
2021/03/21 08:05:27;;;;;;;2.15;1.00;;;6.30;99.90;;;;;;5035114;28;20218;-77
2021/03/21 08:07:57;;;;;;;1.70;1.13;;;6.30;99.90;;;;;;5035579;28;20733;-76
2021/03/21 08:10:28;;;;;;;1.27;0.95;;;6.30;99.90;;;;;;5036025;28;20284;-77
2021/03/21 08:13:01;;;;;;;1.40;1.10;;;6.20;99.90;;;;;;5036233;28;20213;-76
2021/03/21 08:15:32;;;;;;;1.30;0.90;;;6.10;99.90;;;;;;5035984;28;20727;-77
2021/03/21 08:18:03;;;;;;;0.90;0.73;;;6.10;99.90;;;;;;5033576;28;20736;-76
2021/03/21 08:20:35;;;;;;;2.13;0.98;;;6.20;99.90;;;;;;5034138;28;20473;-77
2021/03/21 08:23:13;;;;;;;1.20;0.90;;;6.40;99.90;;;;;;5034197;28;20189;-77
2021/03/21 08:25:41;;;;;;;1.05;0.77;;;6.50;99.90;;;;;;5034075;28;20215;-77
2021/03/21 08:28:14;;;;;;;2.60;1.20;;;6.60;99.90;;;;;;5034154;28;20223;-77
2021/03/21 08:30:48;;;;;;;1.25;1.00;;;6.70;99.90;;;;;;5037333;28;20174;-77
2021/03/21 08:33:29;;;;;;;2.30;1.42;;;6.70;99.90;;;;;;5035792;28;20220;-77
2021/03/21 08:36:17;;;;;;;1.27;1.02;;;6.70;99.90;;;;;;5035042;28;20174;-77
2021/03/21 08:39:00;;;;;;;1.45;0.90;;;6.70;99.90;;;;;;5035098;28;20194;-76
2021/03/21 08:41:29;;;;;;;0.90;0.70;;;6.70;99.90;;;;;;5034984;28;20205;-76
2021/03/21 08:44:05;;;;;;;1.15;1.02;;;6.50;99.90;;;;;;5035023;28;20229;-78
2021/03/21 08:46:34;;;;;;;1.30;0.85;;;6.30;99.90;;;;;;5018169;28;20185;-77
2021/03/21 08:49:19;;;;;;;1.20;0.90;;;6.20;99.90;;;;;;5036232;28;20228;-77
2021/03/21 08:51:47;;;;;;;1.70;0.98;;;6.10;99.90;;;;;;5038300;28;20188;-77
2021/03/21 08:54:20;;;;;;;2.05;0.95;;;6.00;99.90;;;;;;5038469;28;20288;-78
2021/03/21 08:57:00;;;;;;;1.50;0.90;;;6.00;99.90;;;;;;5037032;28;20181;-77
2021/03/21 08:59:36;;;;;;;1.55;1.00;;;6.00;99.90;;;;;;5039461;28;20192;-76
2021/03/21 09:02:08;;;;;;;4.85;1.27;;;6.00;99.90;;;;;;5019813;28;20548;-76
2021/03/21 09:04:38;;;;;;;2.00;1.75;;;6.00;99.90;;;;;;5034893;28;20221;-77
2021/03/21 09:07:26;;;;;;;2.88;1.25;;;6.00;99.90;;;;;;5035297;28;20193;-79
2021/03/21 09:10:21;;;;;;;1.13;1.00;;;6.10;99.90;;;;;;5036515;28;20198;-77
2021/03/21 09:12:50;;;;;;;2.42;1.55;;;6.10;99.90;;;;;;5018414;28;20198;-78
2021/03/21 09:15:32;;;;;;;4.65;2.15;;;6.20;99.90;;;;;;5038286;28;20263;-78
2021/03/21 09:18:10;;;;;;;1.98;1.35;;;6.30;99.90;;;;;;5039321;28;20193;-79
2021/03/21 09:20:41;;;;;;;5.60;1.05;;;6.20;99.90;;;;;;5041983;28;20181;-78
2021/03/21 09:23:31;;;;;;;3.15;1.50;;;6.20;99.90;;;;;;5046233;28;20177;-77
2021/03/21 09:26:00;;;;;;;3.78;2.05;;;6.30;99.90;;;;;;5047057;28;20209;-76
2021/03/21 09:28:33;;;;;;;1.55;1.00;;;6.40;99.90;;;;;;5047962;28;20189;-77
2021/03/21 09:31:04;;;;;;;3.70;1.30;;;6.40;99.90;;;;;;5028125;28;20587;-79
2021/03/21 09:33:37;;;;;;;4.72;1.90;;;6.20;99.90;;;;;;5047656;28;20201;-78
2021/03/21 09:36:15;;;;;;;2.92;2.20;;;6.20;99.90;;;;;;5046708;28;20177;-78
2021/03/21 09:38:49;;;;;;;2.10;1.73;;;6.10;99.90;;;;;;5028394;28;20240;-77
2021/03/21 09:41:18;;;;;;;2.65;2.45;;;6.00;99.90;;;;;;5042677;28;20705;-79
2021/03/21 09:43:48;;;;;;;3.50;1.00;;;6.10;99.90;;;;;;5042217;28;20209;-78
2021/03/21 09:46:28;;;;;;;1.95;1.30;;;6.00;99.90;;;;;;5039592;28;20192;-79
2021/03/21 09:49:12;;;;;;;6.75;2.17;;;6.10;99.90;;;;;;5039495;28;20173;-79
2021/03/21 09:51:43;;;;;;;3.63;1.65;;;6.20;99.90;;;;;;5040490;28;20686;-76
2021/03/21 09:54:22;;;;;;;5.32;1.63;;;6.00;99.90;;;;;;5039628;28;20688;-77
2021/03/21 09:56:53;;;;;;;3.38;1.42;;;5.90;99.90;;;;;;5040560;28;20181;-77
2021/03/21 09:59:34;;;;;;;2.58;1.73;;;6.10;99.90;;;;;;5026577;28;20755;-77
2021/03/21 10:02:15;;;;;;;5.43;1.70;;;6.00;99.90;;;;;;5045369;28;20170;-77
2021/03/21 10:04:50;;;;;;;10.40;2.55;;;6.00;99.90;;;;;;5074963;23;20231;-84
2021/03/21 10:08:04;;;;;;;4.55;1.42;;;5.90;99.90;;;;;;5061536;28;20192;-85
2021/03/21 10:18:41;;;;;;;5.28;1.88;;;6.20;99.90;;;;;;5021839;28;20225;-83
2021/03/21 10:21:18;;;;;;;3.47;1.83;;;6.10;99.90;;;;;;5007063;28;20198;-84
2021/03/21 10:24:16;;;;;;;2.50;1.48;;;6.10;99.90;;;;;;5039076;28;20205;-82
2021/03/21 10:27:27;;;;;;;5.25;1.92;;;6.10;99.90;;;;;;5040315;28;20182;-83
2021/03/21 10:30:10;;;;;;;5.10;2.45;;;6.10;99.90;;;;;;5038813;28;20174;-82
2021/03/21 10:32:40;;;;;;;4.60;1.83;;;6.10;99.90;;;;;;5038762;28;20173;-82
2021/03/21 10:35:30;;;;;;;3.55;1.33;;;6.10;99.90;;;;;;5025594;28;20217;-82
2021/03/21 10:38:02;;;;;;;3.25;1.90;;;6.10;99.90;;;;;;5055977;28;20214;-81
2021/03/21 10:40:44;;;;;;;2.80;1.90;;;6.20;99.90;;;;;;5056896;28;20792;-83
2021/03/21 10:43:28;;;;;;;6.40;2.13;;;6.20;99.90;;;;;;5056633;28;20150;-83
2021/03/21 10:46:34;;;;;;;3.83;1.85;;;6.00;99.90;;;;;;5036513;28;20233;-83
2021/03/21 10:49:10;;;;;;;4.13;1.60;;;6.10;99.90;;;;;;5057156;28;20224;-83
2021/03/21 10:52:17;;;;;;;11.70;2.33;;;6.10;99.90;;;;;;5060623;28;20184;-82
2021/03/21 10:54:45;;;;;;;6.38;2.30;;;5.90;99.90;;;;;;5060255;28;20186;-82
2021/03/21 10:57:34;;;;;;;7.97;2.42;;;5.80;99.90;;;;;;5063760;22;20755;-66
2021/03/21 11:00:15;;;;;;;9.05;2.55;;;5.70;99.90;;;;;;5037881;28;20170;-68
2021/03/21 11:02:45;;;;;;;6.70;3.60;;;5.60;99.90;;;;;;5045542;28;20204;-67
2021/03/21 11:05:27;;;;;;;2.17;1.52;;;5.70;99.90;;;;;;5057878;28;20189;-64
2021/03/21 11:08:03;;;;;;;9.52;2.88;;;5.70;99.90;;;;;;5036215;28;20198;-65
2021/03/21 11:10:30;;;;;;;7.07;2.75;;;5.50;99.90;;;;;;5013056;28;20232;-65
2021/03/21 11:12:58;;;;;;;6.85;2.63;;;5.60;99.90;;;;;;5014495;28;20194;-65
2021/03/21 11:15:40;;;;;;;8.10;2.83;;;5.70;99.90;;;;;;5014121;28;20175;-65
2021/03/21 11:18:19;;;;;;;12.07;3.60;;;5.70;99.90;;;;;;5014203;28;20202;-67
2021/03/21 11:20:47;;;;;;;5.97;2.50;;;5.70;99.90;;;;;;5014310;28;20220;-66
2021/03/21 11:23:21;;;;;;;8.75;3.25;;;5.70;99.90;;;;;;5014100;28;20190;-66
2021/03/21 11:25:49;;;;;;;13.10;2.28;;;5.60;99.90;;;;;;5013839;28;20210;-65
2021/03/21 11:28:28;;;;;;;11.23;4.35;;;5.70;99.90;;;;;;5013654;28;20177;-66
2021/03/21 11:30:58;;;;;;;13.98;3.33;;;5.70;99.90;;;;;;5014105;28;20201;-66
2021/03/21 11:33:33;;;;;;;12.25;3.47;;;5.80;99.90;;;;;;4996558;28;20197;-64
2021/03/21 11:36:32;;;;;;;8.70;3.17;;;5.80;99.90;;;;;;5014082;28;20241;-65
2021/03/21 11:39:12;;;;;;;6.32;3.78;;;5.80;99.90;;;;;;4933864;29;20205;-66
2021/03/21 11:41:41;;;;;;;11.57;3.15;;;5.80;99.90;;;;;;5004349;28;20297;-63
2021/03/21 11:44:16;;;;;;;10.40;4.10;;;6.00;99.90;;;;;;5013776;28;20260;-66
2021/03/21 11:46:44;;;;;;;10.52;3.50;;;6.20;99.90;;;;;;5013171;28;20221;-66
2021/03/21 11:49:12;;;;;;;20.58;3.45;;;6.40;99.90;;;;;;5003929;28;20249;-66
2021/03/21 11:51:41;;;;;;;12.10;3.00;;;6.60;99.90;;;;;;4993225;28;20239;-65
2021/03/21 11:54:17;;;;;;;7.70;3.92;;;6.60;99.90;;;;;;4976311;28;20199;-65
2021/03/21 11:56:54;;;;;;;6.97;3.13;;;6.70;99.90;;;;;;4993465;28;20238;-65
2021/03/21 11:59:26;;;;;;;10.00;2.55;;;6.70;99.90;;;;;;4993477;28;20317;-65
2021/03/21 12:01:57;;;;;;;4.95;3.42;;;6.70;99.90;;;;;;4993283;28;20655;-65
2021/03/21 12:04:30;;;;;;;5.72;3.58;;;6.70;99.90;;;;;;4993140;28;20179;-65
2021/03/21 12:06:59;;;;;;;9.65;2.85;;;6.80;99.90;;;;;;4975684;28;20222;-65
2021/03/21 12:09:29;;;;;;;10.13;2.53;;;7.00;99.90;;;;;;4992914;28;20187;-66
2021/03/21 12:12:01;;;;;;;4.93;2.80;;;7.20;99.90;;;;;;4993042;28;20183;-68
2021/03/21 12:14:43;;;;;;;19.80;3.53;;;7.10;99.90;;;;;;4993100;28;20187;-66
2021/03/21 12:17:31;;;;;;;4.38;2.78;;;7.10;1.00;;;;;;4992900;28;20213;-65
2021/03/21 12:20:24;;;;;;;10.55;2.28;;;7.10;92.60;;;;;;4992613;28;20214;-64
2021/03/21 12:22:52;;;;;;;14.73;3.47;;;7.50;99.90;;;;;;4993411;28;20206;-66
2021/03/21 12:25:24;;;;;;;11.77;4.47;;;7.70;99.90;;;;;;4997617;28;20658;-66
2021/03/21 12:28:01;;;;;;;5.97;2.58;;;7.60;99.90;;;;;;5014807;28;20221;-65
2021/03/21 12:30:34;;;;;;;3.50;2.38;;;7.50;99.90;;;;;;5032189;28;20181;-65
2021/03/21 12:33:31;;;;;;;7.25;2.35;;;7.40;99.90;;;;;;5032063;28;20212;-64
2021/03/21 12:36:16;;;;;;;5.53;2.13;;;7.40;99.90;;;;;;5032060;28;20307;-64
2021/03/21 12:38:47;;;;;;;5.78;3.05;;;7.70;99.90;;;;;;5032201;28;20197;-65
2021/03/21 12:41:34;;;;;;;6.40;3.00;;;7.90;99.90;;;;;;5032440;28;20664;-66
2021/03/21 12:44:17;;;;;;;2.50;2.28;;;7.90;99.90;;;;;;5032493;28;20698;-66
2021/03/21 12:46:46;;;;;;;5.63;2.22;;;8.10;99.90;;;;;;5032555;28;20634;-65
2021/03/21 12:49:45;;;;;;;6.45;4.25;;;8.10;99.90;;;;;;5032173;28;20181;-66
2021/03/21 12:52:17;;;;;;;8.80;2.85;;;8.00;99.90;;;;;;5029901;28;20649;-67
2021/03/21 12:54:46;;;;;;;5.10;1.90;;;8.00;99.90;;;;;;5032451;28;20688;-69
2021/03/21 12:57:16;;;;;;;7.45;3.50;;;7.80;99.90;;;;;;5031886;28;20217;-71
2021/03/21 12:59:46;;;;;;;3.22;1.80;;;7.80;99.90;;;;;;5032015;28;20229;-68
2021/03/21 13:02:19;;;;;;;6.18;3.05;;;7.90;99.90;;;;;;5031686;28;20212;-69
2021/03/21 13:04:47;;;;;;;11.43;4.30;;;8.10;99.90;;;;;;5031526;28;20188;-69
2021/03/21 13:07:15;;;;;;;2.75;2.10;;;8.20;88.20;;;;;;5031304;28;20251;-68
2021/03/21 13:09:43;;;;;;;8.55;1.77;;;8.40;99.90;;;;;;5032491;28;20178;-67
2021/03/21 13:12:10;;;;;;;2.47;2.22;;;8.60;1.00;;;;;;5031483;28;20192;-69
2021/03/21 13:14:39;;;;;;;4.05;2.15;;;8.90;1.00;;;;;;5031469;28;20265;-68
2021/03/21 13:17:06;;;;;;;3.25;1.83;;;9.00;1.00;;;;;;5031715;28;20213;-68
2021/03/21 13:19:34;;;;;;;3.65;1.50;;;9.40;99.90;;;;;;5006366;28;20202;-67
2021/03/21 13:22:03;;;;;;;3.63;1.48;;;9.10;99.90;;;;;;4990771;28;20190;-66
2021/03/21 13:24:30;;;;;;;2.65;1.67;;;9.40;99.90;;;;;;5011337;28;20217;-67
2021/03/21 13:26:58;;;;;;;4.05;1.60;;;9.60;99.90;;;;;;5009851;28;20248;-66
2021/03/21 13:29:26;;;;;;;3.55;2.00;;;9.70;99.90;;;;;;4993038;28;20645;-67
2021/03/21 13:31:54;;;;;;;2.60;1.00;;;9.40;99.90;;;;;;5010793;28;20603;-68
2021/03/21 13:34:22;;;;;;;4.40;1.10;;;9.20;99.90;;;;;;5010799;28;20202;-68
2021/03/21 13:36:49;;;;;;;2.67;2.00;;;9.20;99.90;;;;;;5010875;28;20205;-66
2021/03/21 13:39:16;;;;;;;3.28;1.73;;;9.20;99.90;;;;;;5011180;28;20209;-68
2021/03/21 13:41:43;;;;;;;4.60;1.20;;;9.20;99.90;;;;;;5011482;28;20542;-68
2021/03/21 13:44:11;;;;;;;3.35;1.30;;;9.40;99.90;;;;;;5011021;28;20619;-66
2021/03/21 13:46:39;;;;;;;2.53;1.38;;;9.40;99.90;;;;;;5010847;28;20218;-68
2021/03/21 13:49:07;;;;;;;6.72;2.08;;;9.30;99.90;;;;;;5010785;28;20178;-66
2021/03/21 13:51:35;;;;;;;6.60;1.40;;;9.30;99.90;;;;;;5013962;28;20273;-66
2021/03/21 13:54:03;;;;;;;2.53;1.38;;;9.20;99.90;;;;;;4992150;28;20236;-65